createdAt,value
2022-11-07T00:03:19.761Z,10.60
2022-11-07T00:05:48.109Z,10.60
2022-11-07T00:08:16.283Z,10.50
2022-11-07T00:10:44.426Z,11.10
2022-11-07T00:13:15.391Z,10.60
2022-11-07T00:15:44.952Z,10.20
2022-11-07T00:18:13.117Z,10.50
2022-11-07T00:20:41.292Z,10.50
2022-11-07T00:23:10.731Z,10.60
2022-11-07T00:25:40.135Z,10.60
2022-11-07T00:28:08.281Z,10.60
2022-11-07T00:30:37.855Z,10.50
2022-11-07T00:33:06.044Z,10.60
2022-11-07T00:38:04.231Z,10.60
2022-11-07T00:43:02.045Z,10.70
2022-11-07T00:45:30.219Z,10.40
2022-11-07T00:48:00.905Z,10.60
2022-11-07T00:50:29.062Z,10.60
2022-11-07T00:52:59.910Z,10.60
2022-11-07T00:55:28.112Z,10.50
2022-11-07T01:00:28.542Z,10.60
2022-11-07T01:08:12.360Z,10.60
2022-11-07T01:10:43.071Z,10.60
2022-11-07T01:13:13.798Z,10.50
2022-11-07T01:15:42.622Z,10.60
2022-11-07T01:18:12.045Z,10.50
2022-11-07T01:20:40.948Z,10.60
2022-11-07T01:23:10.759Z,10.60
2022-11-07T01:25:42.279Z,10.20
2022-11-07T01:28:12.798Z,10.60
2022-11-07T01:30:42.112Z,10.60
2022-11-07T01:33:11.656Z,10.80
2022-11-07T01:35:42.795Z,10.70
2022-11-07T01:38:15.984Z,10.70
2022-11-07T01:40:59.386Z,10.60
2022-11-07T01:43:43.465Z,10.70
2022-11-07T01:46:11.729Z,10.70
2022-11-07T01:48:43.264Z,10.60
2022-11-07T01:51:13.946Z,10.70
2022-11-07T01:53:45.188Z,10.60
2022-11-07T01:58:49.855Z,10.70
2022-11-07T02:01:18.816Z,10.60
2022-11-07T02:03:49.278Z,10.60
2022-11-07T02:06:27.468Z,10.60
2022-11-07T02:08:57.181Z,10.60
2022-11-07T02:11:26.997Z,10.60
2022-11-07T02:13:56.398Z,10.60
2022-11-07T02:16:24.600Z,10.50
2022-11-07T02:18:54.356Z,10.50
2022-11-07T02:21:35.784Z,10.50
2022-11-07T02:24:17.126Z,10.50
2022-11-07T02:26:46.874Z,10.60
2022-11-07T02:29:18.006Z,10.10
2022-11-07T02:31:47.328Z,10.40
2022-11-07T02:34:15.484Z,10.70
2022-11-07T02:36:44.838Z,10.70
2022-11-07T02:39:15.644Z,10.80
2022-11-07T02:41:45.664Z,10.60
2022-11-07T02:44:16.831Z,10.70
2022-11-07T02:46:47.371Z,10.70
2022-11-07T02:49:17.942Z,10.80
2022-11-07T02:51:46.064Z,10.80
2022-11-07T02:54:18.030Z,10.80
2022-11-07T02:56:46.244Z,10.60
2022-11-07T02:59:16.841Z,10.80
2022-11-07T03:01:46.322Z,11.40
2022-11-07T03:04:15.788Z,10.80
2022-11-07T03:06:43.962Z,10.90
2022-11-07T03:09:12.225Z,10.90
2022-11-07T03:11:42.945Z,10.90
2022-11-07T03:14:13.494Z,10.90
2022-11-07T03:16:41.912Z,10.70
2022-11-07T03:19:11.285Z,10.80
2022-11-07T03:21:39.448Z,10.70
2022-11-07T03:24:10.224Z,10.80
2022-11-07T03:26:39.604Z,10.90
2022-11-07T03:29:09.155Z,10.90
2022-11-07T03:31:38.576Z,10.80
2022-11-07T03:34:08.074Z,10.90
2022-11-07T03:36:37.391Z,10.90
2022-11-07T03:41:36.703Z,10.80
2022-11-07T03:46:36.323Z,10.70
2022-11-07T03:49:04.602Z,10.80
2022-11-07T03:51:33.992Z,10.80
2022-11-07T03:54:04.456Z,10.80
2022-11-07T03:56:33.804Z,10.80
2022-11-07T03:59:03.652Z,10.80
2022-11-07T04:01:34.517Z,10.90
2022-11-07T04:04:02.790Z,10.80
2022-11-07T04:06:32.241Z,10.80
2022-11-07T04:14:37.241Z,10.70
2022-11-07T04:17:20.114Z,10.70
2022-11-07T04:22:23.091Z,10.60
2022-11-07T04:24:54.003Z,10.80
2022-11-07T04:30:26.041Z,10.80
2022-11-07T04:32:57.995Z,11.30
2022-11-07T04:35:30.894Z,10.70
2022-11-07T04:38:00.889Z,10.70
2022-11-07T04:43:00.830Z,10.90
2022-11-07T04:45:29.008Z,10.80
2022-11-07T04:50:29.386Z,11.00
2022-11-07T04:52:58.856Z,10.90
2022-11-07T04:55:31.819Z,10.80
2022-11-07T04:58:00.295Z,10.70
2022-11-07T05:00:30.890Z,10.90
2022-11-07T05:03:01.671Z,10.70
2022-11-07T05:05:30.119Z,10.70
2022-11-07T05:07:59.449Z,10.70
2022-11-07T05:10:31.979Z,10.80
2022-11-07T05:13:00.304Z,10.80
2022-11-07T05:15:29.676Z,10.80
2022-11-07T05:17:57.801Z,10.70
2022-11-07T05:23:17.670Z,10.80
2022-11-07T05:25:50.098Z,10.80
2022-11-07T05:28:28.055Z,10.80
2022-11-07T05:31:02.984Z,10.70
2022-11-07T05:36:12.891Z,10.70
2022-11-07T05:38:44.523Z,10.70
2022-11-07T05:41:15.578Z,11.30
2022-11-07T05:43:43.995Z,10.70
2022-11-07T05:46:15.040Z,10.60
2022-11-07T05:48:44.383Z,10.70
2022-11-07T05:51:15.333Z,10.50
2022-11-07T05:53:45.518Z,10.50
2022-11-07T05:56:14.885Z,10.50
2022-11-07T05:58:43.028Z,10.50
2022-11-07T06:01:12.490Z,10.40
2022-11-07T06:03:41.808Z,10.30
2022-11-07T06:06:12.371Z,10.20
2022-11-07T06:08:43.086Z,10.20
2022-11-07T06:13:43.378Z,10.00
2022-11-07T06:16:13.939Z,9.50
2022-11-07T06:18:42.252Z,9.90
2022-11-07T06:21:11.660Z,9.90
2022-11-07T06:23:42.434Z,9.80
2022-11-07T06:26:12.067Z,9.90
2022-11-07T06:28:40.262Z,10.00
2022-11-07T06:31:10.853Z,10.00
2022-11-07T06:33:39.082Z,10.00
2022-11-07T06:36:11.628Z,10.00
2022-11-07T06:41:13.112Z,10.20
2022-11-07T06:43:42.214Z,10.10
2022-11-07T06:46:15.790Z,10.30
2022-11-07T06:48:45.196Z,10.20
2022-11-07T06:51:15.905Z,10.30
2022-11-07T06:53:46.917Z,10.20
2022-11-07T06:58:48.249Z,10.20
2022-11-07T07:03:47.673Z,10.40
2022-11-07T07:06:19.402Z,10.60
2022-11-07T07:08:49.761Z,10.70
2022-11-07T07:13:49.045Z,10.60
2022-11-07T07:18:46.980Z,10.60
2022-11-07T07:21:17.135Z,11.00
2022-11-07T07:23:47.892Z,10.70
2022-11-07T07:26:17.592Z,10.70
2022-11-07T07:28:45.731Z,10.70
2022-11-07T07:31:26.352Z,10.70
2022-11-07T07:33:55.841Z,10.70
2022-11-07T07:36:25.525Z,10.70
2022-11-07T07:38:56.184Z,11.00
2022-11-07T07:46:26.273Z,11.80
2022-11-07T07:53:56.208Z,12.90
2022-11-07T07:56:25.552Z,12.70
2022-11-07T07:58:53.650Z,12.60
2022-11-07T08:01:24.512Z,13.00
2022-11-07T08:04:02.884Z,12.20
2022-11-07T08:09:06.390Z,12.60
2022-11-07T08:11:35.903Z,11.90
2022-11-07T08:14:05.272Z,12.10
2022-11-07T08:21:36.975Z,12.00
2022-11-07T08:24:07.821Z,12.10
2022-11-07T08:31:38.684Z,12.30
2022-11-07T08:34:08.094Z,12.40
2022-11-07T08:36:36.297Z,12.40
2022-11-07T08:39:07.076Z,12.40
2022-11-07T08:44:08.232Z,12.50
2022-11-07T08:51:37.731Z,12.70
2022-11-07T08:54:08.763Z,12.70
2022-11-07T08:56:38.433Z,12.70
2022-11-07T08:59:06.620Z,12.80
2022-11-07T09:04:24.525Z,13.00
2022-11-07T09:06:53.978Z,13.20
2022-11-07T09:09:25.783Z,13.30
2022-11-07T09:14:23.801Z,13.40
2022-11-07T09:19:21.896Z,13.60
2022-11-07T09:21:50.143Z,13.60
2022-11-07T09:24:18.429Z,13.90
2022-11-07T09:26:50.417Z,14.40
2022-11-07T09:29:20.239Z,14.60
2022-11-07T09:31:50.894Z,14.60
2022-11-07T09:34:19.180Z,14.60
2022-11-07T09:39:18.486Z,14.20
2022-11-07T09:44:44.766Z,14.00
2022-11-07T09:47:22.489Z,14.00
2022-11-07T09:49:57.070Z,14.10
2022-11-07T09:52:38.511Z,14.20
2022-11-07T09:57:49.779Z,14.20
2022-11-07T10:00:22.049Z,14.60
2022-11-07T10:02:55.345Z,15.00
2022-11-07T10:05:32.529Z,15.20
2022-11-07T10:08:08.588Z,15.20
2022-11-07T10:10:45.887Z,15.00
2022-11-07T10:16:19.999Z,14.70
2022-11-07T10:19:05.469Z,14.50
2022-11-07T10:24:35.247Z,14.40
2022-11-07T10:27:05.146Z,14.30
2022-11-07T10:29:45.162Z,14.20
2022-11-07T10:32:24.806Z,14.20
2022-11-07T10:35:18.396Z,14.10
2022-11-07T10:37:57.175Z,14.00
2022-11-07T10:43:07.846Z,14.10
2022-11-07T10:45:40.788Z,14.20
2022-11-07T10:50:41.636Z,14.50
2022-11-07T10:53:21.096Z,14.60
2022-11-07T10:58:25.488Z,14.90
2022-11-07T11:01:07.176Z,14.90
2022-11-07T11:06:24.832Z,14.70
2022-11-07T11:08:54.221Z,14.50
2022-11-07T11:11:33.122Z,14.40
2022-11-07T11:14:05.916Z,14.40
2022-11-07T11:16:41.186Z,14.40
2022-11-07T11:19:23.530Z,14.40
2022-11-07T11:24:37.430Z,14.40
2022-11-07T11:32:29.454Z,14.40
2022-11-07T11:37:59.312Z,14.30
2022-11-07T11:40:34.712Z,14.30
2022-11-07T11:43:19.376Z,14.30
2022-11-07T11:46:03.174Z,14.30
2022-11-07T11:48:39.885Z,14.40
2022-11-07T11:51:18.740Z,14.30
2022-11-07T11:53:48.296Z,14.30
2022-11-07T11:59:37.901Z,13.90
2022-11-07T12:05:08.768Z,13.10
2022-11-07T12:07:56.041Z,12.80
2022-11-07T12:10:32.184Z,12.60
2022-11-07T12:13:16.126Z,12.40
2022-11-07T12:16:01.275Z,12.30
2022-11-07T12:18:38.513Z,12.30
2022-11-07T12:21:24.661Z,12.30
2022-11-07T12:26:46.147Z,12.30
2022-11-07T12:32:11.915Z,12.10
2022-11-07T12:35:06.937Z,12.00
2022-11-07T12:38:09.978Z,12.00
2022-11-07T12:40:46.151Z,12.00
2022-11-07T12:46:24.148Z,12.00
2022-11-07T12:49:10.935Z,12.00
2022-11-07T12:51:56.458Z,12.00
2022-11-07T12:57:20.244Z,12.10
2022-11-07T13:10:55.358Z,12.20
2022-11-07T13:13:31.795Z,12.70
2022-11-07T13:16:16.314Z,12.30
2022-11-07T13:18:44.521Z,12.40
2022-11-07T13:26:45.251Z,12.50
2022-11-07T13:29:04.578Z,12.70
2022-11-07T13:31:38.451Z,12.60
2022-11-07T13:34:28.054Z,12.70
2022-11-07T13:39:34.765Z,13.20
2022-11-07T13:49:47.999Z,13.60
2022-11-07T13:52:24.026Z,13.40
2022-11-07T13:57:36.380Z,13.50
2022-11-07T14:00:14.394Z,13.40
2022-11-07T14:02:54.041Z,13.50
2022-11-07T14:13:12.106Z,13.40
2022-11-07T14:15:48.459Z,13.60
2022-11-07T14:25:59.860Z,13.30
2022-11-07T14:28:36.580Z,13.30
2022-11-07T14:31:10.404Z,13.80
2022-11-07T14:33:38.575Z,13.20
2022-11-07T14:41:20.542Z,13.30
2022-11-07T14:43:52.587Z,13.40
2022-11-07T14:46:25.381Z,13.30
2022-11-07T14:48:56.013Z,13.30
2022-11-07T14:51:28.836Z,13.30
2022-11-07T14:54:03.785Z,13.30
2022-11-07T14:56:38.184Z,13.30
2022-11-07T14:59:12.457Z,13.20
2022-11-07T15:01:55.331Z,13.20
2022-11-07T15:04:31.103Z,13.20
2022-11-07T15:07:13.416Z,13.20
2022-11-07T15:12:20.414Z,13.20
2022-11-07T15:15:03.398Z,13.20
2022-11-07T15:17:46.870Z,13.20
2022-11-07T15:22:53.701Z,13.20
2022-11-07T15:25:34.022Z,13.10
2022-11-07T15:28:27.108Z,13.10
2022-11-07T15:33:31.601Z,12.90
2022-11-07T15:36:02.631Z,12.80
2022-11-07T15:41:02.479Z,12.80
2022-11-07T15:46:04.655Z,12.80
2022-11-07T15:48:41.188Z,12.70
2022-11-07T15:53:42.149Z,12.80
2022-11-07T15:56:16.404Z,12.90
2022-11-07T15:58:45.990Z,12.90
2022-11-07T16:01:16.802Z,12.90
2022-11-07T16:03:46.383Z,12.80
2022-11-07T16:08:49.415Z,12.80
2022-11-07T16:18:54.669Z,12.60
2022-11-07T16:26:28.660Z,13.00
2022-11-07T16:28:58.364Z,12.60
2022-11-07T16:31:29.202Z,12.60
2022-11-07T16:33:58.581Z,12.70
2022-11-07T16:36:34.044Z,12.60
2022-11-07T16:39:05.365Z,12.60
2022-11-07T16:41:34.752Z,12.60
2022-11-07T16:44:05.488Z,12.60
2022-11-07T16:46:37.430Z,12.60
2022-11-07T16:49:14.782Z,12.60
2022-11-07T16:51:45.567Z,12.70
2022-11-07T16:54:13.719Z,12.50
2022-11-07T16:59:17.833Z,12.60
2022-11-07T17:04:19.112Z,12.80
2022-11-07T17:06:48.019Z,12.70
2022-11-07T17:09:20.244Z,12.70
2022-11-07T17:11:51.020Z,12.70
2022-11-07T17:16:51.171Z,12.80
2022-11-07T17:21:51.596Z,12.70
2022-11-07T17:29:19.458Z,12.80
2022-11-07T17:31:50.332Z,12.80
2022-11-07T17:39:23.178Z,12.90
2022-11-07T17:44:24.151Z,13.00
2022-11-07T17:51:54.527Z,13.00
2022-11-07T17:54:29.057Z,13.00
2022-11-07T17:56:57.751Z,13.00
2022-11-07T17:59:27.164Z,13.00
2022-11-07T18:01:58.025Z,13.20
2022-11-07T18:04:27.471Z,13.10
2022-11-07T18:06:55.681Z,13.30
2022-11-07T18:11:55.519Z,13.10
2022-11-07T18:14:25.140Z,13.10
2022-11-07T18:16:57.132Z,13.10
2022-11-07T18:19:26.373Z,13.10
2022-11-07T18:21:55.804Z,13.00
2022-11-07T18:24:25.309Z,13.00
2022-11-07T18:31:59.570Z,12.90
2022-11-07T18:36:57.583Z,12.70
2022-11-07T18:41:56.887Z,12.60
2022-11-07T18:44:25.302Z,12.60
2022-11-07T18:46:54.703Z,12.70
2022-11-07T18:49:24.796Z,12.50
2022-11-07T18:54:26.201Z,12.60
2022-11-07T18:56:55.641Z,12.80
2022-11-07T18:59:25.010Z,13.00
2022-11-07T19:01:53.334Z,12.30
2022-11-07T19:04:22.868Z,12.70
2022-11-07T19:09:30.852Z,12.90
2022-11-07T19:12:01.418Z,12.90
2022-11-07T19:17:02.132Z,13.10
2022-11-07T19:19:35.335Z,13.00
2022-11-07T19:22:05.642Z,12.90
2022-11-07T19:24:35.697Z,13.00
2022-11-07T19:27:05.278Z,13.10
2022-11-07T19:37:04.428Z,13.10
2022-11-07T19:42:06.418Z,13.10
2022-11-07T19:44:36.357Z,13.20
2022-11-07T19:49:37.550Z,12.80
2022-11-07T19:54:35.675Z,13.10
2022-11-07T19:57:03.866Z,13.20
2022-11-07T19:59:32.207Z,13.20
2022-11-07T20:04:53.796Z,13.20
2022-11-07T20:09:54.888Z,13.30
2022-11-07T20:12:24.276Z,13.10
2022-11-07T20:14:54.028Z,13.30
2022-11-07T20:21:58.236Z,13.30
2022-11-07T20:29:26.307Z,13.30
2022-11-07T20:31:55.618Z,13.40
2022-11-07T20:36:56.839Z,13.30
2022-11-07T20:39:26.174Z,13.30
2022-11-07T20:41:55.496Z,13.20
2022-11-07T20:44:23.908Z,13.40
2022-11-07T20:46:52.923Z,13.30
2022-11-07T20:49:22.306Z,13.50
2022-11-07T20:51:53.591Z,13.40
2022-11-07T20:54:25.494Z,13.50
2022-11-07T20:59:25.943Z,13.60
2022-11-07T21:14:54.631Z,13.40
2022-11-07T21:17:23.997Z,13.50
2022-11-07T21:25:01.734Z,15.30
2022-11-07T21:27:37.501Z,13.40
2022-11-07T21:30:08.745Z,13.50
2022-11-07T21:32:39.421Z,13.60
2022-11-07T21:35:09.927Z,13.60
2022-11-07T21:37:38.550Z,13.60
2022-11-07T21:40:10.446Z,13.60
2022-11-07T21:42:40.978Z,13.60
2022-11-07T21:45:12.211Z,13.60
2022-11-07T21:47:45.675Z,13.60
2022-11-07T21:50:38.510Z,13.60
2022-11-07T21:53:05.756Z,13.60
2022-11-07T21:55:36.596Z,13.60
2022-11-07T21:58:04.749Z,13.70
2022-11-07T22:08:06.508Z,13.50
2022-11-07T22:13:07.403Z,13.60
2022-11-07T22:23:03.876Z,13.80
2022-11-07T22:25:33.822Z,13.50
2022-11-07T22:28:04.455Z,13.60
2022-11-07T22:33:03.740Z,13.70
2022-11-07T22:35:33.811Z,13.80
2022-11-07T22:52:59.036Z,13.50
2022-11-07T23:03:03.045Z,13.20
2022-11-07T23:08:00.032Z,12.90
2022-11-07T23:10:29.374Z,12.70
2022-11-07T23:15:28.396Z,12.50
2022-11-07T23:18:01.446Z,12.50
2022-11-07T23:25:47.485Z,12.20
2022-11-07T23:28:15.863Z,11.90
2022-11-07T23:30:45.548Z,11.90
2022-11-07T23:33:16.596Z,11.70
2022-11-07T23:35:48.038Z,11.50
2022-11-07T23:38:19.155Z,11.60
2022-11-07T23:40:48.824Z,11.40
2022-11-07T23:43:18.289Z,11.30
2022-11-07T23:46:03.869Z,11.30
2022-11-07T23:54:08.939Z,11.10
2022-11-07T23:56:38.198Z,11.00
2022-11-07T23:59:26.073Z,11.00
